createdAt,value
2023-05-22T00:02:06.864Z,18.10
2023-05-22T00:04:58.713Z,18.10
2023-05-22T00:07:46.977Z,18.10
2023-05-22T00:10:33.667Z,18.10
2023-05-22T00:13:20.550Z,18.10
2023-05-22T00:16:07.930Z,18.00
2023-05-22T00:18:57.275Z,18.00
2023-05-22T00:21:43.727Z,17.90
2023-05-22T00:24:30.275Z,17.90
2023-05-22T00:27:16.609Z,17.90
2023-05-22T00:30:03.685Z,17.90
2023-05-22T00:32:50.277Z,17.90
2023-05-22T00:35:38.101Z,17.90
2023-05-22T00:38:32.158Z,17.90
2023-05-22T00:41:18.640Z,17.80
2023-05-22T00:44:05.800Z,17.70
2023-05-22T00:46:52.342Z,17.70
2023-05-22T00:49:39.365Z,17.70
2023-05-22T00:52:27.498Z,17.70
2023-05-22T00:55:16.715Z,17.70
2023-05-22T00:58:07.688Z,17.60
2023-05-22T01:00:54.245Z,17.50
2023-05-22T01:03:44.819Z,17.50
2023-05-22T01:06:32.664Z,17.50
2023-05-22T01:09:20.589Z,17.50
2023-05-22T01:12:19.015Z,17.40
2023-05-22T01:15:17.355Z,17.40
2023-05-22T01:18:12.457Z,17.40
2023-05-22T01:21:10.203Z,17.40
2023-05-22T01:24:41.787Z,17.40
2023-05-22T01:27:57.075Z,17.30
2023-05-22T01:30:49.687Z,17.30
2023-05-22T01:33:42.949Z,17.20
2023-05-22T01:36:34.986Z,17.20
2023-05-22T01:39:23.680Z,17.20
2023-05-22T01:42:10.179Z,17.20
2023-05-22T01:44:56.561Z,17.20
2023-05-22T01:47:44.466Z,17.20
2023-05-22T01:50:31.225Z,17.20
2023-05-22T01:53:25.089Z,17.10
2023-05-22T01:56:17.234Z,17.10
2023-05-22T01:59:10.556Z,17.10
2023-05-22T02:01:57.364Z,17.10
2023-05-22T02:04:50.014Z,17.10
2023-05-22T02:07:40.101Z,17.00
2023-05-22T02:10:28.440Z,17.00
2023-05-22T02:13:15.054Z,17.00
2023-05-22T02:16:03.925Z,17.00
2023-05-22T02:18:51.286Z,17.10
2023-05-22T02:21:39.282Z,17.00
2023-05-22T02:24:26.244Z,17.00
2023-05-22T02:27:12.867Z,16.90
2023-05-22T02:29:59.130Z,16.90
2023-05-22T02:32:45.861Z,16.80
2023-05-22T02:35:32.788Z,16.80
2023-05-22T02:38:20.704Z,16.80
2023-05-22T02:41:07.076Z,16.70
2023-05-22T02:43:53.603Z,16.70
2023-05-22T02:46:39.992Z,16.70
2023-05-22T02:49:26.732Z,16.70
2023-05-22T02:52:12.980Z,16.70
2023-05-22T02:55:00.791Z,16.50
2023-05-22T02:57:47.336Z,16.50
2023-05-22T03:00:33.678Z,16.50
2023-05-22T03:03:20.367Z,16.50
2023-05-22T03:06:08.824Z,16.50
2023-05-22T03:08:55.747Z,16.50
2023-05-22T03:11:43.384Z,16.40
2023-05-22T03:14:30.078Z,16.40
2023-05-22T03:17:16.822Z,16.30
2023-05-22T03:20:03.767Z,16.40
2023-05-22T03:22:50.291Z,16.40
2023-05-22T03:25:36.813Z,16.40
2023-05-22T03:28:24.539Z,16.40
2023-05-22T03:31:11.055Z,16.40
2023-05-22T03:33:57.377Z,16.50
2023-05-22T03:36:45.143Z,16.40
2023-05-22T03:39:32.157Z,16.50
2023-05-22T03:42:18.370Z,16.60
2023-05-22T03:45:07.294Z,16.60
2023-05-22T03:47:53.689Z,16.50
2023-05-22T03:50:40.042Z,16.60
2023-05-22T03:53:26.713Z,16.70
2023-05-22T03:56:13.033Z,16.80
2023-05-22T03:58:59.579Z,16.70
2023-05-22T04:01:48.881Z,16.80
2023-05-22T04:04:38.678Z,16.70
2023-05-22T04:07:25.466Z,16.70
2023-05-22T04:10:12.908Z,16.80
2023-05-22T04:13:00.218Z,16.80
2023-05-22T04:15:47.048Z,17.00
2023-05-22T04:18:35.022Z,17.10
2023-05-22T04:21:23.579Z,17.10
2023-05-22T04:24:10.756Z,17.20
2023-05-22T04:26:59.986Z,17.20
2023-05-22T04:29:46.657Z,17.20
2023-05-22T04:32:32.848Z,17.30
2023-05-22T04:35:20.876Z,17.40
2023-05-22T04:38:07.819Z,17.50
2023-05-22T04:40:54.979Z,17.70
2023-05-22T04:43:41.435Z,17.80
2023-05-22T04:46:28.664Z,18.00
2023-05-22T04:49:15.458Z,18.10
2023-05-22T04:52:04.677Z,18.30
2023-05-22T04:54:52.389Z,18.30
2023-05-22T04:57:38.776Z,18.40
2023-05-22T05:00:26.614Z,18.60
2023-05-22T05:03:15.883Z,18.70
2023-05-22T05:06:02.594Z,18.90
2023-05-22T05:08:50.232Z,19.00
2023-05-22T05:11:36.539Z,19.20
2023-05-22T05:14:22.951Z,19.50
2023-05-22T05:17:09.240Z,19.50
2023-05-22T05:19:55.722Z,19.50
2023-05-22T05:22:43.952Z,19.70
2023-05-22T05:25:31.513Z,19.80
2023-05-22T05:28:18.245Z,19.80
2023-05-22T05:31:04.689Z,20.00
2023-05-22T05:33:52.507Z,20.30
2023-05-22T05:36:38.731Z,20.50
2023-05-22T05:39:25.311Z,20.60
2023-05-22T05:42:13.165Z,21.00
2023-05-22T05:44:59.400Z,21.20
2023-05-22T05:47:45.872Z,21.20
2023-05-22T05:50:32.464Z,20.90
2023-05-22T05:53:19.060Z,21.20
2023-05-22T05:56:06.626Z,21.30
2023-05-22T05:58:54.254Z,21.40
2023-05-22T06:01:45.899Z,21.70
2023-05-22T06:04:32.292Z,21.80
2023-05-22T06:07:18.734Z,21.80
2023-05-22T06:10:06.749Z,21.80
2023-05-22T06:12:53.131Z,21.70
2023-05-22T06:15:41.171Z,22.30
2023-05-22T06:18:27.437Z,22.50
2023-05-22T06:21:14.049Z,22.60
2023-05-22T06:24:00.248Z,22.40
2023-05-22T06:26:46.638Z,22.20
2023-05-22T06:29:33.377Z,22.20
2023-05-22T06:32:21.481Z,22.20
2023-05-22T06:35:08.734Z,22.50
2023-05-22T06:37:55.171Z,22.60
2023-05-22T06:40:41.898Z,22.30
2023-05-22T06:43:28.346Z,22.10
2023-05-22T06:46:14.785Z,22.20
2023-05-22T06:49:03.168Z,22.60
2023-05-22T06:51:49.917Z,23.20
2023-05-22T06:54:36.290Z,23.60
2023-05-22T06:57:24.005Z,24.30
2023-05-22T07:00:12.713Z,25.30
2023-05-22T07:02:59.209Z,26.60
2023-05-22T07:05:47.269Z,27.30
2023-05-22T07:08:35.155Z,28.10
2023-05-22T07:11:22.298Z,28.60
2023-05-22T07:14:08.837Z,28.30
2023-05-22T07:16:55.148Z,28.10
2023-05-22T07:19:41.719Z,28.60
2023-05-22T07:22:29.203Z,28.40
2023-05-22T07:25:15.896Z,28.30
2023-05-22T07:28:08.469Z,27.30
2023-05-22T07:30:54.958Z,27.00
2023-05-22T07:33:41.212Z,26.40
2023-05-22T07:36:27.779Z,26.40
2023-05-22T07:39:15.277Z,26.90
2023-05-22T07:42:02.124Z,27.10
2023-05-22T07:44:48.599Z,27.40
2023-05-22T07:47:34.902Z,27.10
2023-05-22T07:50:21.702Z,26.80
2023-05-22T07:53:08.311Z,26.50
2023-05-22T07:55:55.792Z,26.20
2023-05-22T07:58:42.415Z,26.10
2023-05-22T08:01:29.131Z,25.70
2023-05-22T08:04:16.341Z,25.40
2023-05-22T08:07:03.232Z,25.30
2023-05-22T08:09:49.496Z,25.10
2023-05-22T08:12:37.140Z,24.90
2023-05-22T08:15:23.652Z,24.70
2023-05-22T08:18:10.335Z,24.50
2023-05-22T08:20:57.575Z,24.40
2023-05-22T08:23:44.182Z,24.50
2023-05-22T08:26:32.211Z,24.40
2023-05-22T08:29:20.184Z,24.60
2023-05-22T08:32:06.920Z,24.90
2023-05-22T08:34:53.300Z,25.50
2023-05-22T08:37:41.620Z,25.90
2023-05-22T08:40:37.340Z,26.30
2023-05-22T08:43:25.425Z,26.30
2023-05-22T08:46:16.195Z,26.20
2023-05-22T08:49:03.538Z,25.90
2023-05-22T08:51:55.392Z,25.70
2023-05-22T08:54:43.274Z,25.80
2023-05-22T08:57:30.691Z,25.70
2023-05-22T09:00:20.724Z,25.80
2023-05-22T09:03:10.156Z,25.70
2023-05-22T09:05:56.633Z,25.50
2023-05-22T09:08:43.274Z,25.60
2023-05-22T09:11:29.510Z,25.80
2023-05-22T09:14:16.367Z,26.20
2023-05-22T09:17:03.785Z,26.00
2023-05-22T09:19:51.377Z,26.00
2023-05-22T09:22:39.159Z,25.70
2023-05-22T09:25:26.494Z,25.40
2023-05-22T09:28:13.754Z,25.40
2023-05-22T09:31:03.234Z,25.80
2023-05-22T09:33:50.264Z,25.80
2023-05-22T09:36:38.373Z,26.10
2023-05-22T09:39:24.557Z,26.20
2023-05-22T09:42:12.777Z,26.40
2023-05-22T09:45:04.510Z,26.60
2023-05-22T09:47:51.615Z,26.90
2023-05-22T09:50:39.679Z,26.80
2023-05-22T09:53:29.127Z,26.70
2023-05-22T09:56:21.450Z,26.50
2023-05-22T09:59:16.112Z,26.80
2023-05-22T10:02:03.417Z,26.90
2023-05-22T10:04:51.069Z,27.30
2023-05-22T10:07:44.316Z,27.20
2023-05-22T10:10:33.177Z,27.40
2023-05-22T10:13:20.284Z,27.50
2023-05-22T10:16:07.776Z,27.30
2023-05-22T10:18:56.065Z,27.10
2023-05-22T10:21:44.708Z,26.80
2023-05-22T10:24:32.414Z,26.60
2023-05-22T10:27:21.309Z,26.50
2023-05-22T10:30:18.649Z,26.60
2023-05-22T10:33:11.615Z,27.00
2023-05-22T10:36:02.437Z,27.00
2023-05-22T10:39:04.180Z,26.90
2023-05-22T10:41:50.750Z,26.90
2023-05-22T10:44:39.566Z,26.50
2023-05-22T10:47:27.486Z,26.20
2023-05-22T10:50:14.531Z,26.20
2023-05-22T10:53:21.095Z,26.30
2023-05-22T10:56:12.158Z,26.30
2023-05-22T10:59:02.705Z,26.30
2023-05-22T11:02:01.835Z,26.20
2023-05-22T11:04:48.645Z,26.20
2023-05-22T11:07:41.494Z,26.20
2023-05-22T11:10:30.279Z,26.10
2023-05-22T11:13:19.165Z,26.20
2023-05-22T11:16:06.442Z,26.20
2023-05-22T11:19:21.195Z,26.30
2023-05-22T11:22:09.576Z,26.20
2023-05-22T11:24:56.421Z,26.20
2023-05-22T11:27:43.151Z,26.10
2023-05-22T11:30:31.826Z,26.20
2023-05-22T11:33:19.547Z,26.20
2023-05-22T11:36:08.019Z,26.20
2023-05-22T11:38:59.485Z,26.20
2023-05-22T11:41:46.024Z,26.10
2023-05-22T11:44:32.580Z,26.10
2023-05-22T11:47:19.260Z,26.00
2023-05-22T11:50:07.022Z,26.00
2023-05-22T11:52:56.407Z,25.90
2023-05-22T11:55:43.953Z,25.90
2023-05-22T11:58:30.658Z,26.00
2023-05-22T12:01:20.453Z,25.90
2023-05-22T12:04:06.960Z,25.90
2023-05-22T12:06:53.788Z,26.00
2023-05-22T12:09:43.314Z,26.00
2023-05-22T12:12:29.703Z,25.90
2023-05-22T12:15:19.346Z,25.80
2023-05-22T12:18:09.551Z,25.80
2023-05-22T12:20:56.888Z,25.90
2023-05-22T12:23:52.793Z,26.00
2023-05-22T12:26:40.856Z,26.10
2023-05-22T12:29:27.224Z,26.00
2023-05-22T12:32:14.023Z,26.10
2023-05-22T12:35:00.858Z,26.10
2023-05-22T12:37:51.007Z,26.20
2023-05-22T12:40:37.857Z,26.20
2023-05-22T12:43:26.429Z,26.20
2023-05-22T12:46:12.913Z,26.40
2023-05-22T12:48:59.209Z,26.50
2023-05-22T12:51:45.488Z,26.60
2023-05-22T12:54:31.821Z,26.50
2023-05-22T12:57:18.484Z,26.50
2023-05-22T13:00:07.760Z,26.50
2023-05-22T13:02:54.581Z,26.60
2023-05-22T13:05:41.646Z,26.70
2023-05-22T13:08:28.680Z,26.60
2023-05-22T13:11:14.978Z,26.70
2023-05-22T13:14:01.494Z,26.90
2023-05-22T13:16:49.193Z,26.90
2023-05-22T13:19:35.798Z,27.00
2023-05-22T13:22:23.895Z,26.90
2023-05-22T13:25:10.685Z,27.00
2023-05-22T13:27:56.881Z,27.00
2023-05-22T13:30:43.248Z,27.10
2023-05-22T13:33:31.530Z,27.00
2023-05-22T13:36:18.969Z,27.00
2023-05-22T13:39:05.681Z,26.90
2023-05-22T13:41:53.266Z,26.80
2023-05-22T13:44:39.484Z,27.00
2023-05-22T13:47:26.076Z,27.00
2023-05-22T13:50:13.976Z,26.90
2023-05-22T13:53:00.368Z,27.00
2023-05-22T13:55:46.879Z,27.00
2023-05-22T13:58:34.015Z,27.10
2023-05-22T14:01:20.464Z,27.10
2023-05-22T14:04:07.290Z,27.10
2023-05-22T14:06:55.296Z,26.90
2023-05-22T14:09:41.741Z,26.80
2023-05-22T14:12:28.005Z,26.90
2023-05-22T14:15:15.995Z,26.90
2023-05-22T14:18:02.569Z,26.90
2023-05-22T14:20:49.119Z,26.90
2023-05-22T14:23:36.712Z,26.90
2023-05-22T14:26:24.165Z,26.90
2023-05-22T14:29:11.582Z,26.70
2023-05-22T14:32:04.907Z,26.80
2023-05-22T14:34:51.812Z,26.80
2023-05-22T14:37:38.408Z,26.80
2023-05-22T14:40:26.529Z,26.70
2023-05-22T14:43:13.073Z,26.80
2023-05-22T14:45:59.892Z,26.70
2023-05-22T14:48:46.633Z,26.80
2023-05-22T14:51:32.780Z,26.80
2023-05-22T14:54:20.495Z,26.80
2023-05-22T14:57:08.790Z,26.80
2023-05-22T14:59:55.305Z,26.70
2023-05-22T15:02:41.858Z,26.70
2023-05-22T15:05:28.514Z,26.70
2023-05-22T15:08:14.820Z,26.70
2023-05-22T15:11:01.260Z,26.70
2023-05-22T15:13:48.983Z,26.60
2023-05-22T15:16:35.591Z,26.50
2023-05-22T15:19:22.401Z,26.60
2023-05-22T15:22:19.633Z,26.60
2023-05-22T15:25:08.496Z,26.70
2023-05-22T15:27:54.868Z,26.60
2023-05-22T15:30:43.597Z,26.70
2023-05-22T15:33:29.774Z,26.70
2023-05-22T15:36:16.290Z,26.70
2023-05-22T15:39:02.804Z,26.90
2023-05-22T15:42:02.229Z,27.00
2023-05-22T15:44:52.052Z,27.10
2023-05-22T15:47:40.065Z,27.00
2023-05-22T15:50:26.554Z,27.00
2023-05-22T15:53:12.853Z,26.90
2023-05-22T15:55:59.109Z,26.80
2023-05-22T15:58:46.346Z,26.70
2023-05-22T16:01:32.562Z,26.60
2023-05-22T16:04:20.599Z,26.60
2023-05-22T16:07:06.902Z,26.60
2023-05-22T16:09:53.133Z,26.70
2023-05-22T16:12:40.544Z,26.50
2023-05-22T16:15:27.081Z,26.40
2023-05-22T16:18:13.903Z,26.30
2023-05-22T16:21:01.562Z,26.30
2023-05-22T16:23:47.956Z,26.20
2023-05-22T16:26:34.106Z,26.10
2023-05-22T16:29:21.404Z,26.00
2023-05-22T16:32:08.307Z,26.00
2023-05-22T16:34:54.707Z,25.90
2023-05-22T16:37:42.721Z,25.90
2023-05-22T16:40:29.397Z,25.90
2023-05-22T16:43:16.654Z,26.00
2023-05-22T16:46:02.912Z,25.90
2023-05-22T16:48:50.328Z,25.90
2023-05-22T16:51:36.564Z,25.90
2023-05-22T16:54:24.391Z,25.80
2023-05-22T16:57:10.766Z,25.80
2023-05-22T16:59:58.001Z,25.70
2023-05-22T17:02:44.849Z,25.70
2023-05-22T17:05:31.183Z,25.60
2023-05-22T17:08:17.555Z,25.50
2023-05-22T17:11:05.229Z,25.40
2023-05-22T17:13:51.558Z,25.40
2023-05-22T17:16:37.929Z,25.30
2023-05-22T17:19:24.698Z,25.20
2023-05-22T17:22:11.366Z,25.10
2023-05-22T17:24:57.961Z,25.00
2023-05-22T17:27:46.471Z,24.90
2023-05-22T17:30:32.823Z,24.80
2023-05-22T17:33:19.401Z,24.80
2023-05-22T17:36:06.495Z,24.70
2023-05-22T17:38:52.704Z,24.60
2023-05-22T17:41:39.245Z,24.50
2023-05-22T17:44:26.973Z,24.40
2023-05-22T17:47:14.227Z,24.40
2023-05-22T17:50:00.919Z,24.30
2023-05-22T17:52:47.447Z,24.30
2023-05-22T17:55:33.899Z,24.20
2023-05-22T17:58:21.385Z,24.20
2023-05-22T18:01:08.974Z,24.10
2023-05-22T18:03:55.140Z,24.10
2023-05-22T18:06:42.058Z,24.00
2023-05-22T18:09:28.212Z,23.90
2023-05-22T18:12:30.170Z,23.80
2023-05-22T18:15:18.184Z,23.80
2023-05-22T18:18:06.246Z,23.70
2023-05-22T18:20:53.217Z,23.60
2023-05-22T18:23:39.656Z,23.40
2023-05-22T18:26:26.663Z,23.50
2023-05-22T18:29:13.184Z,23.40
2023-05-22T18:31:59.546Z,23.30
2023-05-22T18:34:48.596Z,23.30
2023-05-22T18:37:34.979Z,23.20
2023-05-22T18:40:21.322Z,23.10
2023-05-22T18:43:07.766Z,23.10
2023-05-22T18:45:54.007Z,23.00
2023-05-22T18:48:40.236Z,22.90
2023-05-22T18:51:28.862Z,22.90
2023-05-22T18:54:15.393Z,22.80
2023-05-22T18:57:01.730Z,22.80
2023-05-22T18:59:48.288Z,22.80
2023-05-22T19:02:34.467Z,22.70
2023-05-22T19:05:21.307Z,22.60
2023-05-22T19:08:09.489Z,22.60
2023-05-22T19:10:58.485Z,22.50
2023-05-22T19:13:45.492Z,22.40
2023-05-22T19:16:31.728Z,22.40
2023-05-22T19:19:18.201Z,22.30
2023-05-22T19:22:04.975Z,22.20
2023-05-22T19:24:52.751Z,22.30
2023-05-22T19:27:39.518Z,22.20
2023-05-22T19:30:26.396Z,22.00
2023-05-22T19:33:18.959Z,22.00
2023-05-22T19:36:09.072Z,21.90
2023-05-22T19:38:55.579Z,21.80
2023-05-22T19:41:43.460Z,21.80
2023-05-22T19:44:29.774Z,21.80
2023-05-22T19:47:16.091Z,21.80
2023-05-22T19:50:03.685Z,21.80
2023-05-22T19:52:50.400Z,21.80
2023-05-22T19:55:36.932Z,21.80
2023-05-22T19:58:24.561Z,21.70
2023-05-22T20:01:12.027Z,21.70
2023-05-22T20:03:58.920Z,21.60
2023-05-22T20:06:45.526Z,21.50
2023-05-22T20:09:31.950Z,21.50
2023-05-22T20:12:18.494Z,21.50
2023-05-22T20:15:07.751Z,21.50
2023-05-22T20:17:54.989Z,21.60
2023-05-22T20:20:41.418Z,21.60
2023-05-22T20:23:27.713Z,21.70
2023-05-22T20:26:14.718Z,21.60
2023-05-22T20:29:01.362Z,21.60
2023-05-22T20:31:51.163Z,21.50
2023-05-22T20:34:38.477Z,21.50
2023-05-22T20:37:24.859Z,21.40
2023-05-22T20:40:12.942Z,21.40
2023-05-22T20:43:02.379Z,21.30
2023-05-22T20:45:50.434Z,21.40
2023-05-22T20:48:38.891Z,21.30
2023-05-22T20:51:32.255Z,21.20
2023-05-22T20:54:18.939Z,21.10
2023-05-22T20:57:06.125Z,21.10
2023-05-22T20:59:53.822Z,21.00
2023-05-22T21:02:40.377Z,20.90
2023-05-22T21:05:28.392Z,20.90
2023-05-22T21:08:17.867Z,20.80
2023-05-22T21:11:05.051Z,20.70
2023-05-22T21:13:51.303Z,20.50
2023-05-22T21:16:39.492Z,20.40
2023-05-22T21:19:26.083Z,20.40
2023-05-22T21:22:13.988Z,20.40
2023-05-22T21:25:00.353Z,20.30
2023-05-22T21:27:48.238Z,20.30
2023-05-22T21:30:35.159Z,20.30
2023-05-22T21:33:21.626Z,20.30
2023-05-22T21:36:08.295Z,20.30
2023-05-22T21:38:57.614Z,20.20
2023-05-22T21:41:44.204Z,20.20
2023-05-22T21:44:30.557Z,20.20
2023-05-22T21:47:16.974Z,20.30
2023-05-22T21:50:03.403Z,20.10
2023-05-22T21:52:50.069Z,20.10
2023-05-22T21:55:37.717Z,20.10
2023-05-22T21:58:24.036Z,19.90
2023-05-22T22:01:10.938Z,19.90
2023-05-22T22:03:57.379Z,20.00
2023-05-22T22:06:44.156Z,20.00
2023-05-22T22:09:30.406Z,20.10
2023-05-22T22:12:17.984Z,20.20
2023-05-22T22:15:05.205Z,20.30
2023-05-22T22:17:52.197Z,20.30
2023-05-22T22:20:45.073Z,20.30
2023-05-22T22:23:32.390Z,20.20
2023-05-22T22:26:19.125Z,20.10
2023-05-22T22:29:07.255Z,20.10
2023-05-22T22:31:53.872Z,20.20
2023-05-22T22:34:40.485Z,20.70
2023-05-22T22:37:26.849Z,21.00
2023-05-22T22:40:13.898Z,21.00
2023-05-22T22:43:00.625Z,21.00
2023-05-22T22:45:48.334Z,21.10
2023-05-22T22:48:34.693Z,20.90
2023-05-22T22:51:21.379Z,20.90
2023-05-22T22:54:08.044Z,21.00
2023-05-22T22:56:54.849Z,20.90
2023-05-22T22:59:41.226Z,20.90
2023-05-22T23:02:28.958Z,20.90
2023-05-22T23:05:19.750Z,21.00
2023-05-22T23:08:06.345Z,21.10
2023-05-22T23:10:53.140Z,21.20
2023-05-22T23:13:41.235Z,21.40
2023-05-22T23:16:27.819Z,21.50
2023-05-22T23:19:16.049Z,21.40
2023-05-22T23:22:02.696Z,21.40
2023-05-22T23:24:48.947Z,21.40
2023-05-22T23:27:36.408Z,21.50
2023-05-22T23:30:22.624Z,21.40
2023-05-22T23:33:09.173Z,21.20
2023-05-22T23:35:56.823Z,21.20
2023-05-22T23:38:43.537Z,21.10
2023-05-22T23:41:29.847Z,21.10
2023-05-22T23:44:16.122Z,21.10
2023-05-22T23:47:02.402Z,21.10
2023-05-22T23:49:48.974Z,21.00
2023-05-22T23:52:36.614Z,21.20
2023-05-22T23:55:26.597Z,21.00
2023-05-22T23:58:13.094Z,20.80
